Time;durP1;ratioP1;P1;durP2;ratioP2;P2;SDS_P1;SDS_P2;PMS_P1;PMS_P2;Temp;Humidity;BMP_temperature;BMP_pressure;BME280_temperature;BME280_humidity;BME280_pressure;Samples;Min_cycle;Max_cycle;Signal;HPM_P1;HPM_P2
2021/11/28 00:00:50;;;;;;;10.27;9.60;;;3.20;99.90;;;;;;5038125;28;20258;-65
2021/11/28 00:03:18;;;;;;;11.13;10.13;;;3.10;99.90;;;;;;5031812;28;20267;-65
2021/11/28 00:05:51;;;;;;;11.03;10.23;;;3.10;99.90;;;;;;5043445;28;20193;-66
2021/11/28 00:13:49;;;;;;;10.37;9.37;;;3.10;99.90;;;;;;5051077;28;20654;-66
2021/11/28 00:16:16;;;;;;;10.70;9.80;;;3.20;99.90;;;;;;5036135;28;20604;-66
2021/11/28 00:18:43;;;;;;;11.43;10.53;;;3.20;99.90;;;;;;5031554;28;20202;-65
2021/11/28 00:21:09;;;;;;;10.83;10.03;;;3.20;99.90;;;;;;5044677;28;20182;-65
2021/11/28 00:23:36;;;;;;;10.87;9.93;;;3.20;99.90;;;;;;5030762;28;20210;-66
2021/11/28 00:26:02;;;;;;;11.20;10.33;;;3.20;99.90;;;;;;5043771;28;20182;-66
2021/11/28 00:28:28;;;;;;;11.80;10.70;;;3.20;99.90;;;;;;5051391;28;20722;-66
2021/11/28 00:30:54;;;;;;;10.93;10.23;;;3.10;99.90;;;;;;5040149;28;20238;-66
2021/11/28 00:33:20;;;;;;;10.43;9.73;;;3.00;99.90;;;;;;5031339;28;20172;-66
2021/11/28 00:35:46;;;;;;;11.70;10.90;;;3.00;99.90;;;;;;5040342;28;20177;-66
2021/11/28 00:38:12;;;;;;;12.80;11.70;;;3.00;99.90;;;;;;5051402;28;20171;-66
2021/11/28 00:40:38;;;;;;;10.90;10.20;;;3.10;99.90;;;;;;5042400;28;20211;-65
2021/11/28 00:43:03;;;;;;;11.70;10.67;;;3.10;99.90;;;;;;5031265;28;20184;-66
2021/11/28 00:45:29;;;;;;;10.80;10.07;;;3.00;99.90;;;;;;5038008;28;20241;-66
2021/11/28 00:47:55;;;;;;;12.37;11.20;;;3.00;99.90;;;;;;5050958;28;20210;-66
2021/11/28 00:52:46;;;;;;;10.40;9.70;;;3.00;99.90;;;;;;5030858;28;20249;-66
2021/11/28 00:55:13;;;;;;;11.63;10.93;;;3.00;99.90;;;;;;5033292;28;20178;-67
2021/11/28 00:57:39;;;;;;;13.30;12.53;;;3.10;99.90;;;;;;5031179;28;20222;-66
2021/11/28 01:00:06;;;;;;;12.53;11.83;;;3.10;99.90;;;;;;5033471;28;20237;-66
2021/11/28 01:02:33;;;;;;;14.27;13.07;;;3.10;99.90;;;;;;5050779;28;20187;-67
2021/11/28 01:04:59;;;;;;;14.57;13.57;;;3.10;99.90;;;;;;5049544;28;20209;-66
2021/11/28 01:07:27;;;;;;;15.67;14.73;;;3.10;99.90;;;;;;5034141;28;20234;-66
2021/11/28 01:09:53;;;;;;;15.87;14.50;;;3.00;99.90;;;;;;5034639;28;20283;-65
2021/11/28 01:12:21;;;;;;;14.93;13.90;;;3.00;99.90;;;;;;5014998;28;20172;-65
2021/11/28 01:14:47;;;;;;;15.50;14.30;;;3.00;99.90;;;;;;5015441;28;20264;-65
2021/11/28 01:17:13;;;;;;;14.30;13.30;;;3.00;99.90;;;;;;5053237;28;20175;-65
2021/11/28 01:19:39;;;;;;;15.33;14.00;;;2.90;99.90;;;;;;5054352;28;20194;-66
2021/11/28 01:22:08;;;;;;;14.90;13.73;;;2.90;99.90;;;;;;5050158;28;20636;-66
2021/11/28 01:24:35;;;;;;;12.93;12.03;;;2.90;99.90;;;;;;5054937;28;20202;-65
2021/11/28 01:27:01;;;;;;;15.13;13.93;;;2.90;99.90;;;;;;5037836;28;20213;-65
2021/11/28 01:29:27;;;;;;;14.63;13.37;;;2.90;99.90;;;;;;5034911;28;20222;-66
2021/11/28 01:31:53;;;;;;;14.30;13.40;;;2.90;99.90;;;;;;5049296;28;20178;-66
2021/11/28 01:34:19;;;;;;;16.03;14.93;;;2.90;99.90;;;;;;5054512;28;20178;-67
2021/11/28 01:36:44;;;;;;;15.87;14.73;;;2.90;99.90;;;;;;5051499;28;20204;-65
2021/11/28 01:39:10;;;;;;;14.50;13.70;;;2.90;99.90;;;;;;5054345;28;20190;-66
2021/11/28 01:41:37;;;;;;;14.77;13.87;;;2.90;99.90;;;;;;5045929;28;20187;-66
2021/11/28 01:44:04;;;;;;;15.73;14.63;;;2.90;99.90;;;;;;5018775;28;20187;-65
2021/11/28 01:46:30;;;;;;;14.07;13.27;;;2.90;99.90;;;;;;5014936;28;20172;-66
2021/11/28 01:48:56;;;;;;;15.30;14.10;;;2.90;99.90;;;;;;5024160;28;20597;-66
2021/11/28 01:51:22;;;;;;;14.57;13.73;;;2.90;99.90;;;;;;5034221;28;20172;-65
2021/11/28 01:53:50;;;;;;;15.70;14.50;;;3.00;99.90;;;;;;5049677;28;20565;-66
2021/11/28 01:56:16;;;;;;;13.97;13.03;;;3.00;99.90;;;;;;5054490;28;20170;-66
2021/11/28 01:58:42;;;;;;;14.50;13.43;;;3.00;99.90;;;;;;5052123;28;20446;-66
2021/11/28 02:01:14;;;;;;;13.93;13.03;;;3.00;99.90;;;;;;5053634;28;20716;-66
2021/11/28 02:03:41;;;;;;;13.37;12.40;;;3.10;99.90;;;;;;5039680;28;20262;-66
2021/11/28 02:06:10;;;;;;;13.80;12.63;;;3.20;99.90;;;;;;5034574;28;20258;-65
2021/11/28 02:08:37;;;;;;;12.53;11.57;;;3.20;99.90;;;;;;5044985;28;20203;-66
2021/11/28 02:11:04;;;;;;;12.70;11.53;;;3.20;99.90;;;;;;5054298;28;20170;-64
2021/11/28 02:13:30;;;;;;;12.40;11.50;;;3.20;99.90;;;;;;5042046;28;20179;-64
2021/11/28 02:15:56;;;;;;;11.97;11.10;;;3.20;99.90;;;;;;5034031;28;20172;-66
2021/11/28 02:18:23;;;;;;;12.47;11.57;;;3.20;99.90;;;;;;5042637;28;20183;-65
2021/11/28 02:20:52;;;;;;;12.70;11.60;;;3.20;99.90;;;;;;5053893;28;20539;-65
2021/11/28 02:23:19;;;;;;;12.80;11.73;;;3.10;99.90;;;;;;5044453;28;20261;-65
2021/11/28 02:25:45;;;;;;;12.63;11.83;;;3.10;99.90;;;;;;5034744;28;20183;-66
2021/11/28 02:28:11;;;;;;;12.53;11.43;;;3.10;99.90;;;;;;5040956;28;20202;-66
2021/11/28 02:30:37;;;;;;;13.50;12.60;;;3.00;99.90;;;;;;5048640;22;20278;-66
2021/11/28 02:33:04;;;;;;;13.43;12.53;;;3.00;99.90;;;;;;5018889;28;20187;-67
2021/11/28 02:35:31;;;;;;;13.33;12.43;;;3.00;99.90;;;;;;5033670;28;20171;-66
2021/11/28 02:37:58;;;;;;;14.63;13.53;;;3.00;99.90;;;;;;5028792;28;20186;-65
2021/11/28 02:40:25;;;;;;;14.23;13.27;;;3.00;99.90;;;;;;5013266;28;20208;-64
2021/11/28 02:42:52;;;;;;;13.90;13.10;;;3.00;99.90;;;;;;5013067;28;20176;-63
2021/11/28 02:45:19;;;;;;;13.37;12.57;;;3.00;99.90;;;;;;5013873;28;20172;-64
2021/11/28 02:47:45;;;;;;;14.43;13.43;;;2.90;99.90;;;;;;5012967;28;20235;-67
2021/11/28 02:50:14;;;;;;;12.70;11.80;;;2.80;99.90;;;;;;5013492;28;20610;-65
2021/11/28 02:52:41;;;;;;;13.03;12.23;;;2.80;99.90;;;;;;5012862;28;20164;-66
2021/11/28 02:55:07;;;;;;;13.67;12.50;;;2.80;99.90;;;;;;5013439;28;20242;-66
2021/11/28 02:57:33;;;;;;;15.07;14.00;;;2.80;99.90;;;;;;5013301;28;20214;-64
2021/11/28 02:59:59;;;;;;;14.87;13.77;;;2.80;99.90;;;;;;5012998;28;20204;-65
2021/11/28 03:02:25;;;;;;;16.30;14.67;;;2.80;99.90;;;;;;5012787;28;20646;-67
2021/11/28 03:04:51;;;;;;;15.10;14.10;;;2.70;99.90;;;;;;5013053;28;20168;-63
2021/11/28 03:07:18;;;;;;;13.43;12.30;;;2.70;99.90;;;;;;4995323;28;20199;-64
2021/11/28 03:09:44;;;;;;;11.90;11.10;;;2.70;99.90;;;;;;5012740;28;20192;-65
2021/11/28 03:12:11;;;;;;;13.97;12.47;;;2.80;99.90;;;;;;5012688;28;20180;-65
2021/11/28 03:14:38;;;;;;;12.87;12.03;;;2.90;99.90;;;;;;5012915;28;20302;-64
2021/11/28 03:17:04;;;;;;;14.63;13.43;;;2.90;99.90;;;;;;5012757;28;20215;-64
2021/11/28 03:19:30;;;;;;;13.57;12.60;;;2.90;99.90;;;;;;4995168;28;20744;-65
2021/11/28 03:21:56;;;;;;;12.27;11.27;;;3.00;99.90;;;;;;5012261;28;20267;-66
2021/11/28 03:24:22;;;;;;;13.80;12.80;;;3.00;99.90;;;;;;5013186;28;20176;-64
2021/11/28 03:26:48;;;;;;;13.27;12.47;;;3.00;99.90;;;;;;5012456;28;20184;-64
2021/11/28 03:29:20;;;;;;;12.70;11.63;;;3.10;99.90;;;;;;5011951;28;20222;-64
2021/11/28 03:31:51;;;;;;;13.53;12.53;;;3.10;99.90;;;;;;5011741;28;20179;-65
2021/11/28 03:34:18;;;;;;;12.73;11.90;;;3.20;99.90;;;;;;5012275;28;20642;-65
2021/11/28 03:36:54;;;;;;;13.67;12.67;;;3.10;99.90;;;;;;5012508;28;20211;-65
2021/11/28 03:39:24;;;;;;;14.90;13.60;;;3.10;99.90;;;;;;5012418;28;20290;-65
2021/11/28 03:41:53;;;;;;;13.30;12.37;;;3.20;99.90;;;;;;5012307;28;20164;-69
2021/11/28 03:44:19;;;;;;;14.00;12.90;;;3.10;99.90;;;;;;5012220;28;20181;-65
2021/11/28 03:46:45;;;;;;;13.73;12.57;;;3.10;99.90;;;;;;5012510;28;20218;-66
2021/11/28 03:49:11;;;;;;;13.63;12.73;;;3.10;99.90;;;;;;5012071;28;20204;-65
2021/11/28 03:51:37;;;;;;;12.67;11.73;;;3.00;99.90;;;;;;5012200;28;20760;-67
2021/11/28 03:54:02;;;;;;;13.17;11.60;;;3.00;99.90;;;;;;5011888;28;20191;-65
2021/11/28 03:56:28;;;;;;;13.33;12.33;;;3.00;99.90;;;;;;5012297;28;20184;-65
2021/11/28 03:58:54;;;;;;;13.30;12.13;;;3.00;99.90;;;;;;5011975;28;20520;-64
2021/11/28 04:01:21;;;;;;;13.73;12.57;;;3.00;99.90;;;;;;5012321;28;20275;-65
2021/11/28 04:03:47;;;;;;;13.17;12.23;;;3.00;99.90;;;;;;5011445;28;20573;-65
2021/11/28 04:06:13;;;;;;;13.90;12.90;;;3.00;99.90;;;;;;5012188;28;20620;-65
2021/11/28 04:08:39;;;;;;;14.23;13.23;;;3.00;99.90;;;;;;5011778;28;20292;-65
2021/11/28 04:11:05;;;;;;;14.53;13.60;;;3.00;99.90;;;;;;5011973;28;20699;-65
2021/11/28 04:13:30;;;;;;;13.50;12.63;;;2.90;99.90;;;;;;5011758;28;20172;-65
2021/11/28 04:15:56;;;;;;;14.90;13.80;;;2.90;99.90;;;;;;5011735;28;20531;-65
2021/11/28 04:18:22;;;;;;;14.40;13.53;;;2.90;99.90;;;;;;5011975;28;20255;-64
2021/11/28 04:20:48;;;;;;;13.97;12.93;;;2.90;99.90;;;;;;5011313;28;20665;-65
2021/11/28 04:23:15;;;;;;;12.90;12.10;;;2.90;99.90;;;;;;5011619;28;20182;-64
2021/11/28 04:25:41;;;;;;;12.13;11.23;;;3.00;99.90;;;;;;4993844;28;20241;-64
2021/11/28 04:28:08;;;;;;;11.67;10.73;;;3.00;99.90;;;;;;5011811;28;20207;-64
2021/11/28 04:30:34;;;;;;;12.23;11.33;;;3.00;99.90;;;;;;5011507;28;20298;-64
2021/11/28 04:33:00;;;;;;;11.97;10.97;;;3.00;99.90;;;;;;5011622;28;20176;-64
2021/11/28 04:35:26;;;;;;;11.20;10.30;;;3.10;99.90;;;;;;5011540;28;20681;-64
2021/11/28 04:37:52;;;;;;;11.73;10.53;;;3.20;99.90;;;;;;5011564;28;20172;-64
2021/11/28 04:40:18;;;;;;;12.93;11.90;;;3.20;99.90;;;;;;5011372;28;20278;-64
2021/11/28 04:42:44;;;;;;;11.40;10.60;;;3.20;99.90;;;;;;5011153;28;20176;-65
2021/11/28 04:45:11;;;;;;;11.33;10.47;;;3.20;99.90;;;;;;5011510;28;20180;-64
2021/11/28 04:47:37;;;;;;;11.37;10.57;;;3.20;99.90;;;;;;5011508;28;20196;-66
2021/11/28 04:50:04;;;;;;;12.23;11.23;;;3.10;99.90;;;;;;5011173;28;20290;-64
2021/11/28 04:52:30;;;;;;;12.20;10.97;;;3.10;99.90;;;;;;5011268;28;20649;-65
2021/11/28 04:54:55;;;;;;;10.43;9.57;;;3.20;99.90;;;;;;5011396;28;20210;-64
2021/11/28 04:57:21;;;;;;;10.40;9.70;;;3.20;99.90;;;;;;5011634;28;20230;-64
2021/11/28 04:59:47;;;;;;;10.73;9.90;;;3.30;99.90;;;;;;5011260;28;20203;-66
2021/11/28 05:02:13;;;;;;;12.03;10.93;;;3.30;99.90;;;;;;5011317;28;20590;-65
2021/11/28 05:04:39;;;;;;;10.37;9.67;;;3.30;99.90;;;;;;5011077;28;20172;-65
2021/11/28 05:07:05;;;;;;;10.57;9.87;;;3.30;99.90;;;;;;5011424;28;20176;-64
2021/11/28 05:09:30;;;;;;;10.27;9.47;;;3.30;99.90;;;;;;5011100;28;20196;-65
2021/11/28 05:11:56;;;;;;;11.20;10.30;;;3.20;99.90;;;;;;5011293;28;20176;-65
2021/11/28 05:14:22;;;;;;;11.90;10.90;;;3.30;99.90;;;;;;5011132;28;20183;-64
2021/11/28 05:16:47;;;;;;;12.30;10.70;;;3.30;99.90;;;;;;5011324;28;20851;-65
2021/11/28 05:19:13;;;;;;;10.90;10.00;;;3.30;99.90;;;;;;5011262;28;20661;-65
2021/11/28 05:21:39;;;;;;;10.47;9.83;;;3.30;99.90;;;;;;5011082;28;20192;-64
2021/11/28 05:24:05;;;;;;;10.87;10.20;;;3.40;99.90;;;;;;5010913;28;20187;-65
2021/11/28 05:26:31;;;;;;;11.53;10.53;;;3.40;99.90;;;;;;5011021;28;20650;-64
2021/11/28 05:28:57;;;;;;;10.20;9.57;;;3.40;99.90;;;;;;5010770;28;20705;-64
2021/11/28 05:31:22;;;;;;;10.47;9.57;;;3.40;99.90;;;;;;5011324;28;20179;-64
2021/11/28 05:33:49;;;;;;;10.60;9.73;;;3.30;99.90;;;;;;5010411;28;20252;-65
2021/11/28 05:36:16;;;;;;;11.23;10.23;;;3.30;99.90;;;;;;5010999;28;20242;-64
2021/11/28 05:38:43;;;;;;;9.80;8.83;;;3.40;99.90;;;;;;5010905;28;20181;-65
2021/11/28 05:41:09;;;;;;;10.70;9.93;;;3.40;99.90;;;;;;4993417;28;20200;-65
2021/11/28 05:43:41;;;;;;;11.77;8.90;;;3.50;99.90;;;;;;5010661;28;20181;-65
2021/11/28 05:46:07;;;;;;;9.73;9.00;;;3.50;99.90;;;;;;5010955;28;20180;-65
2021/11/28 05:48:33;;;;;;;10.30;9.60;;;3.50;99.90;;;;;;5011184;28;20751;-64
2021/11/28 05:50:59;;;;;;;9.60;9.00;;;3.40;99.90;;;;;;5011002;28;20219;-65
2021/11/28 05:53:26;;;;;;;11.03;10.23;;;3.50;99.90;;;;;;5012139;28;20172;-64
2021/11/28 05:55:52;;;;;;;9.87;9.13;;;3.50;99.90;;;;;;5014339;28;20191;-64
2021/11/28 05:58:18;;;;;;;10.70;9.80;;;3.50;99.90;;;;;;5014440;28;20168;-65
2021/11/28 06:00:43;;;;;;;9.60;8.90;;;3.50;99.90;;;;;;5014049;28;20708;-64
2021/11/28 06:03:09;;;;;;;9.63;9.03;;;3.50;99.90;;;;;;5014028;28;20543;-64
2021/11/28 06:05:35;;;;;;;9.83;9.13;;;3.50;99.90;;;;;;5014308;28;20176;-66
2021/11/28 06:08:01;;;;;;;11.07;9.77;;;3.50;99.90;;;;;;5013769;28;20293;-65
2021/11/28 06:10:27;;;;;;;9.90;9.13;;;3.50;99.90;;;;;;5014230;28;20212;-65
2021/11/28 06:12:53;;;;;;;10.07;9.10;;;3.50;99.90;;;;;;5013593;28;20655;-64
2021/11/28 06:15:18;;;;;;;9.30;8.70;;;3.60;99.90;;;;;;5014231;28;20178;-65
2021/11/28 06:17:44;;;;;;;10.47;9.60;;;3.60;99.90;;;;;;5013701;28;20190;-67
2021/11/28 06:20:10;;;;;;;9.80;9.03;;;3.60;99.90;;;;;;5013938;28;20192;-65
2021/11/28 06:22:36;;;;;;;10.10;9.50;;;3.70;99.90;;;;;;5013472;28;20616;-65
2021/11/28 06:25:03;;;;;;;9.90;9.10;;;3.60;99.90;;;;;;5013952;28;20179;-65
2021/11/28 06:27:29;;;;;;;9.70;9.10;;;3.60;99.90;;;;;;5013589;28;20204;-64
2021/11/28 06:29:54;;;;;;;10.53;9.70;;;3.60;99.90;;;;;;5013654;28;20621;-64
2021/11/28 06:32:21;;;;;;;9.73;8.87;;;3.60;99.90;;;;;;5013364;28;20180;-64
2021/11/28 06:34:46;;;;;;;10.37;9.57;;;3.60;99.90;;;;;;5013663;28;20183;-64
2021/11/28 06:37:12;;;;;;;10.17;9.17;;;3.60;99.90;;;;;;5013562;28;20548;-64
2021/11/28 06:39:38;;;;;;;9.53;8.73;;;3.70;99.90;;;;;;5013506;28;20195;-65
2021/11/28 06:42:04;;;;;;;10.47;9.73;;;3.60;99.90;;;;;;5013276;28;20185;-64
2021/11/28 06:44:30;;;;;;;10.30;9.33;;;3.60;99.90;;;;;;5013467;28;20187;-65
2021/11/28 06:46:55;;;;;;;10.97;10.00;;;3.60;99.90;;;;;;5013144;28;20555;-64
2021/11/28 06:49:21;;;;;;;10.20;9.47;;;3.60;99.90;;;;;;5013958;28;20594;-64
2021/11/28 06:51:47;;;;;;;10.47;9.57;;;3.70;99.90;;;;;;5013100;28;20176;-65
2021/11/28 06:54:13;;;;;;;10.60;9.90;;;3.60;99.90;;;;;;5013160;28;20176;-65
2021/11/28 06:56:38;;;;;;;9.93;9.13;;;3.60;99.90;;;;;;5013044;28;20254;-65
2021/11/28 06:59:04;;;;;;;10.87;9.87;;;3.50;99.90;;;;;;5013277;28;20208;-64
2021/11/28 07:01:29;;;;;;;10.30;9.53;;;3.60;99.90;;;;;;5012951;28;20190;-64
2021/11/28 07:03:55;;;;;;;10.87;10.17;;;3.50;99.90;;;;;;5012452;28;20204;-65
2021/11/28 07:06:21;;;;;;;11.23;10.33;;;3.50;99.90;;;;;;5012883;28;20641;-65
2021/11/28 07:08:46;;;;;;;10.93;10.20;;;3.40;99.90;;;;;;5010778;28;20208;-65
2021/11/28 07:11:12;;;;;;;10.23;9.37;;;3.40;99.90;;;;;;5012740;28;20191;-64
2021/11/28 07:13:38;;;;;;;10.00;9.07;;;3.40;99.90;;;;;;5012522;28;20180;-65
2021/11/28 07:16:03;;;;;;;10.77;9.80;;;3.40;99.90;;;;;;5012667;28;20191;-65
2021/11/28 07:18:29;;;;;;;10.33;9.43;;;3.40;99.90;;;;;;5012610;28;20521;-64
2021/11/28 07:20:55;;;;;;;11.63;10.67;;;3.40;99.90;;;;;;5012692;28;20192;-66
2021/11/28 07:23:21;;;;;;;11.57;10.57;;;3.40;99.90;;;;;;5012297;28;20208;-64
2021/11/28 07:25:48;;;;;;;12.70;11.63;;;3.40;99.90;;;;;;5012592;28;20188;-63
2021/11/28 07:28:14;;;;;;;10.33;9.73;;;3.40;99.90;;;;;;5012122;28;20199;-64
2021/11/28 07:30:41;;;;;;;10.93;10.13;;;3.40;99.90;;;;;;5012290;28;20760;-64
2021/11/28 07:33:07;;;;;;;10.70;9.90;;;3.40;99.90;;;;;;5011965;28;20187;-64
2021/11/28 07:35:32;;;;;;;10.37;9.57;;;3.50;99.90;;;;;;5012404;28;20176;-65
2021/11/28 07:37:58;;;;;;;10.57;9.87;;;3.50;99.90;;;;;;5011961;28;20650;-64
2021/11/28 07:40:24;;;;;;;10.93;10.13;;;3.50;99.90;;;;;;5012207;28;20204;-66
2021/11/28 07:42:50;;;;;;;10.20;9.40;;;3.60;99.90;;;;;;5011849;28;20267;-65
2021/11/28 07:45:16;;;;;;;10.40;9.50;;;3.60;99.90;;;;;;5012184;28;20255;-67
2021/11/28 07:47:41;;;;;;;11.17;10.17;;;3.60;99.90;;;;;;5011700;28;20609;-66
2021/11/28 07:50:09;;;;;;;11.53;10.53;;;3.50;99.90;;;;;;5012021;28;20192;-66
2021/11/28 07:52:35;;;;;;;10.60;9.70;;;3.50;99.90;;;;;;5011417;28;20505;-66
2021/11/28 07:55:00;;;;;;;11.10;10.10;;;3.60;99.90;;;;;;5012147;28;20262;-66
2021/11/28 07:57:26;;;;;;;10.40;9.70;;;3.70;99.90;;;;;;5010580;28;20187;-66
2021/11/28 07:59:52;;;;;;;11.87;10.43;;;3.70;99.90;;;;;;5011787;28;20587;-65
2021/11/28 08:02:19;;;;;;;10.13;9.50;;;3.70;99.90;;;;;;5010991;28;20636;-67
2021/11/28 08:04:45;;;;;;;11.00;10.03;;;3.70;99.90;;;;;;5011535;28;20180;-65
2021/11/28 08:07:11;;;;;;;11.10;10.30;;;3.70;99.90;;;;;;5010498;28;20180;-66
2021/11/28 08:09:37;;;;;;;12.13;11.03;;;3.70;99.90;;;;;;4994155;28;20195;-67
2021/11/28 08:12:03;;;;;;;11.33;10.37;;;3.80;99.90;;;;;;5010129;28;20688;-66
2021/11/28 08:14:30;;;;;;;11.63;10.70;;;3.70;99.90;;;;;;5011100;28;20173;-66
2021/11/28 08:16:55;;;;;;;11.17;10.33;;;3.70;99.90;;;;;;4993525;28;20650;-66
2021/11/28 08:19:21;;;;;;;11.33;10.40;;;3.70;99.90;;;;;;5012097;28;20219;-66
2021/11/28 08:21:47;;;;;;;11.43;10.53;;;3.80;99.90;;;;;;4993784;28;20180;-65
2021/11/28 08:24:13;;;;;;;11.47;10.53;;;3.80;99.90;;;;;;5011397;28;20182;-66
2021/11/28 08:26:39;;;;;;;13.40;10.67;;;3.80;99.90;;;;;;5011054;28;20177;-66
2021/11/28 08:29:06;;;;;;;10.57;9.73;;;3.80;99.90;;;;;;5011398;28;20223;-66
2021/11/28 08:31:33;;;;;;;11.53;10.53;;;3.80;99.90;;;;;;5071574;22;20252;-66
2021/11/28 08:33:58;;;;;;;11.27;10.37;;;3.70;99.90;;;;;;5050743;28;20171;-66
2021/11/28 08:36:24;;;;;;;12.07;11.00;;;3.70;99.90;;;;;;5050994;28;20178;-66
2021/11/28 08:38:52;;;;;;;12.40;11.27;;;3.60;99.90;;;;;;5050163;28;20236;-69
2021/11/28 08:41:22;;;;;;;12.43;11.17;;;3.60;99.90;;;;;;5067269;28;20712;-66
2021/11/28 08:43:50;;;;;;;11.73;10.63;;;3.60;99.90;;;;;;5070866;28;20292;-66
2021/11/28 08:46:16;;;;;;;11.50;10.50;;;3.60;99.90;;;;;;5070945;28;21066;-66
2021/11/28 08:48:42;;;;;;;11.10;10.20;;;3.60;99.90;;;;;;5070202;28;20228;-66
2021/11/28 08:51:08;;;;;;;12.20;10.93;;;3.60;99.90;;;;;;5069990;28;20562;-66
2021/11/28 08:53:35;;;;;;;13.33;12.20;;;3.70;99.90;;;;;;5070849;28;20195;-66
2021/11/28 08:56:01;;;;;;;10.70;9.87;;;3.70;99.90;;;;;;5070981;28;20576;-66
2021/11/28 08:58:27;;;;;;;12.77;11.77;;;3.70;99.90;;;;;;5071293;28;20162;-66
2021/11/28 09:00:53;;;;;;;12.37;11.37;;;3.80;99.90;;;;;;5070600;28;20198;-66
2021/11/28 09:03:19;;;;;;;12.33;11.30;;;3.90;99.90;;;;;;5070936;28;20231;-66
2021/11/28 09:05:44;;;;;;;14.87;13.37;;;3.90;99.90;;;;;;5070499;28;20220;-66
2021/11/28 09:08:10;;;;;;;13.40;12.17;;;3.90;99.90;;;;;;5070840;28;20679;-66
2021/11/28 09:10:38;;;;;;;13.87;12.57;;;3.90;99.90;;;;;;5070605;28;20218;-66
2021/11/28 09:13:04;;;;;;;11.60;10.67;;;3.90;99.90;;;;;;5070692;28;20256;-66
2021/11/28 09:15:32;;;;;;;12.77;11.67;;;3.90;99.90;;;;;;5069215;28;20202;-66
2021/11/28 09:18:05;;;;;;;14.10;12.97;;;3.90;99.90;;;;;;5070788;28;20166;-68
2021/11/28 09:20:31;;;;;;;13.40;12.20;;;3.90;99.90;;;;;;5070652;28;20277;-65
2021/11/28 09:25:27;;;;;;;14.50;13.00;;;3.90;99.90;;;;;;5070180;28;20619;-67
2021/11/28 09:27:55;;;;;;;12.47;11.33;;;3.90;99.90;;;;;;5072640;28;20193;-66
2021/11/28 09:30:23;;;;;;;13.40;12.23;;;3.90;99.90;;;;;;5074289;28;20209;-66
2021/11/28 09:32:50;;;;;;;13.40;12.17;;;3.90;99.90;;;;;;5073393;28;20490;-66
2021/11/28 09:35:15;;;;;;;13.57;12.30;;;4.00;99.90;;;;;;5073207;28;20267;-65
2021/11/28 09:37:41;;;;;;;12.70;11.60;;;4.00;99.90;;;;;;5073341;28;20250;-67
2021/11/28 09:40:07;;;;;;;12.73;11.57;;;4.00;99.90;;;;;;5074357;28;20202;-65
2021/11/28 09:42:38;;;;;;;13.97;12.57;;;4.10;99.90;;;;;;5073710;28;20230;-66
2021/11/28 09:45:06;;;;;;;14.00;12.63;;;4.10;99.90;;;;;;5074560;28;20268;-66
2021/11/28 09:47:33;;;;;;;13.37;12.20;;;4.10;99.90;;;;;;5069151;28;20577;-65
2021/11/28 09:50:03;;;;;;;13.93;12.57;;;4.20;99.90;;;;;;5074008;28;20227;-68
2021/11/28 09:52:30;;;;;;;15.00;13.53;;;4.20;99.90;;;;;;5074068;28;20394;-66
2021/11/28 09:54:57;;;;;;;14.77;13.23;;;4.30;99.90;;;;;;5074147;28;20600;-65
2021/11/28 09:57:23;;;;;;;14.13;12.80;;;4.30;99.90;;;;;;5073847;28;20174;-65
2021/11/28 09:59:52;;;;;;;13.10;12.00;;;4.20;99.90;;;;;;5073990;28;20232;-66
2021/11/28 10:02:27;;;;;;;14.10;12.80;;;4.40;99.90;;;;;;5073221;28;20176;-66
2021/11/28 10:04:54;;;;;;;14.50;13.17;;;4.50;99.90;;;;;;5073240;28;20189;-66
2021/11/28 10:07:21;;;;;;;12.67;11.47;;;4.60;99.90;;;;;;5073917;28;20190;-66
2021/11/28 10:09:48;;;;;;;14.07;12.53;;;4.60;99.90;;;;;;5073664;28;20194;-66
2021/11/28 10:12:18;;;;;;;12.10;11.10;;;4.60;99.90;;;;;;5055042;28;20175;-65
2021/11/28 10:14:47;;;;;;;11.83;10.83;;;4.60;99.90;;;;;;5053821;28;20211;-67
2021/11/28 10:17:17;;;;;;;15.00;11.87;;;4.70;99.90;;;;;;5058587;28;20761;-66
2021/11/28 10:19:42;;;;;;;12.33;11.13;;;4.80;99.90;;;;;;5073191;28;20202;-66
2021/11/28 10:22:08;;;;;;;12.60;11.40;;;4.90;99.90;;;;;;5073122;28;20174;-66
2021/11/28 10:24:35;;;;;;;12.17;10.87;;;4.90;99.90;;;;;;5073391;28;20472;-65
2021/11/28 10:27:08;;;;;;;11.60;10.70;;;5.10;99.90;;;;;;5053491;28;20248;-66
2021/11/28 10:29:37;;;;;;;11.70;10.60;;;5.20;99.90;;;;;;5053422;28;20593;-66
2021/11/28 10:32:05;;;;;;;12.10;11.00;;;5.30;99.90;;;;;;5072839;28;20174;-67
2021/11/28 10:34:57;;;;;;;11.77;10.60;;;5.40;99.90;;;;;;5072975;28;20177;-66
2021/11/28 10:37:24;;;;;;;11.17;10.07;;;5.40;99.90;;;;;;5051292;28;20234;-66
2021/11/28 10:39:57;;;;;;;11.17;9.97;;;5.40;99.90;;;;;;5060244;28;20227;-66
2021/11/28 10:42:32;;;;;;;11.60;10.60;;;5.50;99.90;;;;;;5072815;28;20520;-66
2021/11/28 10:45:10;;;;;;;10.97;10.00;;;5.50;99.90;;;;;;5073208;28;20250;-66
2021/11/28 10:47:43;;;;;;;10.77;9.67;;;5.50;99.90;;;;;;5072865;28;20186;-66
2021/11/28 10:50:13;;;;;;;12.07;10.87;;;5.50;99.90;;;;;;5072749;28;20189;-65
2021/11/28 10:52:41;;;;;;;11.07;10.17;;;5.40;99.90;;;;;;5072459;28;20182;-66
2021/11/28 10:55:15;;;;;;;13.57;12.47;;;5.30;99.90;;;;;;5073084;28;20174;-64
2021/11/28 10:57:41;;;;;;;12.00;10.83;;;5.10;99.90;;;;;;5072683;28;20646;-66
2021/11/28 11:00:10;;;;;;;15.13;12.37;;;5.00;99.90;;;;;;5073246;28;20228;-68
2021/11/28 11:02:38;;;;;;;13.77;12.37;;;5.00;99.90;;;;;;5072866;28;20228;-67
2021/11/28 11:05:07;;;;;;;13.43;12.23;;;5.10;99.90;;;;;;5073429;28;20209;-67
2021/11/28 11:07:46;;;;;;;13.50;12.20;;;5.20;99.90;;;;;;5072426;28;20202;-68
2021/11/28 11:10:21;;;;;;;14.47;12.73;;;5.40;99.90;;;;;;5072715;28;20583;-66
2021/11/28 11:12:47;;;;;;;13.60;12.33;;;5.40;99.90;;;;;;5071650;28;20178;-66
2021/11/28 11:15:16;;;;;;;13.13;11.80;;;5.30;99.90;;;;;;5072283;28;20670;-66
2021/11/28 11:17:58;;;;;;;13.90;12.60;;;5.30;99.90;;;;;;5072253;28;20174;-65
2021/11/28 11:20:28;;;;;;;14.03;12.73;;;5.30;99.90;;;;;;5072286;28;20194;-66
2021/11/28 11:22:54;;;;;;;12.17;11.07;;;5.40;99.90;;;;;;5071619;28;20649;-66
2021/11/28 11:25:29;;;;;;;14.07;12.27;;;5.40;99.90;;;;;;5071495;28;20174;-67
2021/11/28 11:28:10;;;;;;;13.00;11.80;;;5.30;99.90;;;;;;5071973;28;20522;-66
2021/11/28 11:30:36;;;;;;;13.80;12.33;;;5.40;99.90;;;;;;5072013;28;20198;-65
2021/11/28 11:33:02;;;;;;;11.67;10.67;;;5.50;99.90;;;;;;5071729;28;20661;-65
2021/11/28 11:35:30;;;;;;;11.87;10.83;;;5.80;99.90;;;;;;5072234;28;20189;-66
2021/11/28 11:38:05;;;;;;;13.23;12.00;;;6.20;99.90;;;;;;5071777;28;20551;-66
2021/11/28 11:40:32;;;;;;;13.67;12.27;;;6.60;99.90;;;;;;5071705;28;20551;-66
2021/11/28 11:42:58;;;;;;;12.80;11.63;;;6.60;99.90;;;;;;5071516;28;20174;-67
2021/11/28 11:45:27;;;;;;;13.87;12.47;;;6.50;99.90;;;;;;5071802;28;20552;-66
2021/11/28 11:47:54;;;;;;;15.03;12.70;;;6.60;99.90;;;;;;5071433;28;20690;-67
2021/11/28 11:50:23;;;;;;;13.67;12.40;;;6.60;99.90;;;;;;5070702;28;20220;-66
2021/11/28 11:52:51;;;;;;;13.97;12.67;;;6.70;99.90;;;;;;5069991;28;20777;-65
2021/11/28 11:55:24;;;;;;;14.13;12.47;;;6.70;99.90;;;;;;5071293;28;20265;-66
2021/11/28 11:58:18;;;;;;;15.23;12.57;;;6.90;99.90;;;;;;5071632;28;20178;-66
2021/11/28 12:00:59;;;;;;;13.30;12.10;;;6.80;99.90;;;;;;5071280;28;20208;-66
2021/11/28 12:03:25;;;;;;;15.20;12.73;;;6.70;99.90;;;;;;5071486;28;20219;-66
2021/11/28 12:05:57;;;;;;;16.03;14.47;;;6.60;99.90;;;;;;5071216;28;20750;-65
2021/11/28 12:08:25;;;;;;;13.53;12.33;;;6.40;99.90;;;;;;5071404;28;20229;-65
2021/11/28 12:10:55;;;;;;;14.70;13.30;;;6.40;99.90;;;;;;5071410;28;20596;-66
2021/11/28 12:13:26;;;;;;;14.17;12.87;;;6.60;99.90;;;;;;5070268;28;20177;-67
2021/11/28 12:16:13;;;;;;;14.50;12.07;;;7.00;99.90;;;;;;5051528;28;20171;-67
2021/11/28 12:18:50;;;;;;;13.67;12.27;;;7.40;99.90;;;;;;5062566;28;20193;-65
2021/11/28 12:21:17;;;;;;;16.00;12.77;;;7.10;99.90;;;;;;5071651;28;20478;-66
2021/11/28 12:23:43;;;;;;;19.73;13.63;;;7.00;99.90;;;;;;5070881;28;20279;-67
2021/11/28 12:26:30;;;;;;;15.60;13.97;;;6.80;99.90;;;;;;5071354;28;20178;-67
2021/11/28 12:28:56;;;;;;;14.83;13.23;;;6.60;99.90;;;;;;5071449;28;20209;-67
2021/11/28 12:31:31;;;;;;;15.70;13.57;;;6.60;99.90;;;;;;5071428;28;20713;-67
2021/11/28 12:34:02;;;;;;;17.30;14.00;;;6.60;99.90;;;;;;5071053;28;20209;-66
2021/11/28 12:36:38;;;;;;;13.80;12.50;;;6.70;99.90;;;;;;5071168;28;20165;-66
2021/11/28 12:39:06;;;;;;;15.13;12.67;;;6.70;99.90;;;;;;5071334;28;20264;-67
2021/11/28 12:41:55;;;;;;;18.10;13.67;;;6.70;99.90;;;;;;5071084;28;20275;-67
2021/11/28 12:44:27;;;;;;;13.73;12.27;;;7.00;99.90;;;;;;5070980;28;20178;-67
2021/11/28 12:47:00;;;;;;;13.90;12.37;;;7.10;99.90;;;;;;5071166;28;20508;-67
2021/11/28 12:49:45;;;;;;;13.00;11.47;;;7.10;99.90;;;;;;5070704;28;20201;-67
2021/11/28 12:52:17;;;;;;;13.03;11.83;;;7.10;99.90;;;;;;5070885;28;20162;-67